Airfield :
LOGIN :

Register | Disclaimer

   EN    FR    IT 

 










Legend :    VFR   Marginal VFR   IFR   Intensive IFR   Very Intensive IFR
Visi :
Ceiling :
>= 8 km
>= 3000ft
5 to 8 km
1000 to 3000 ft
1500m to 5 km
500 to 1000 ft
800 to 1500m
200 to 500 ft
< 800m
< 200 ft
Symbols :   Thunderstorms  Fog  Heavy snow  Heavy precipitations  Wind > 20 kt
SIGMETs :     Misc.  Thunderstorms  Icing  Turbulence  Mountain Waves  Volcanic Ashes






- Airport Elevation : 9 ft
- IATA code : ALF


ENAT - Alta

CURRENT METAR :
  • 250850Z 24008KT 200V270 CAVOK 18/07 Q1008 RMK WIND 700FT 22012KT

EXPIRED METARs :
  • 250820Z 18008KT 150V220 CAVOK 18/06 Q1007 RMK WIND 700FT 22009KT
  • 250750Z 20008KT 140V260 CAVOK 19/07 Q1007 RMK WIND 700FT 19012KT
  • 250720Z 18007KT 150V240 9999 FEW028 SCT098 18/08 Q1007 RMK WIND 700FT 20011KT
  • 250650Z 19008KT 130V220 9999 FEW026 SCT044 SCT098 17/09 Q1008 RMK WIND 700FT 18012KT
  • 250620Z 16010KT 9999 FEW024 SCT100 16/09 Q1008 RMK WIND 700FT 18016KT
  • 250550Z 15012KT 9999 FEW019 BKN110 16/10 Q1008 RMK WIND 700FT 18013KT
  • 250520Z 16005KT 110V210 9999 FEW019 BKN110 15/10 Q1008 RMK WIND 700FT 18011KT
  • 250450Z 16007KT 130V220 9999 SCT019 BKN100 14/10 Q1008 RMK WIND 700FT 17005KT
  • 250420Z VRB02KT 9999 SCT019 BKN100 13/10 Q1009 RMK WIND 700FT 17008KT
  • 250350Z VRB01KT 9999 SCT018 BKN100 13/10 Q1009 RMK WIND 700FT 17010KT

TAF TAF ENAT
Valid from the 25 at 09:00 until the 25 at 18:00 UTC


250800Z 2509/2518 18008KT 9999 FEW020 BKN050



MET'MAP, your aeronautical weather chart ! - Copyright ORBIFLY December 2007 - Disclaimer

ORBIFLY MET'MAP TEAM :

Programming & Development : Alexandra Zaïnal
Original concept : Baudouin d'Aumeries
Technical & hardware support : Manuel Goepfert
Assistance : Marc-Olivier Méhu




SOURCES & CREDITS :

   NOAA